sensor_id;sensor_type;location;lat;lon;timestamp;temperature;humidity
6948;DHT22;3513;47.664;9.162;2023-02-28T00:01:00;0.00;90.00
6948;DHT22;3513;47.664;9.162;2023-02-28T00:03:26;0.00;90.30
6948;DHT22;3513;47.664;9.162;2023-02-28T00:05:51;0.00;90.00
6948;DHT22;3513;47.664;9.162;2023-02-28T00:08:17;0.00;89.60
6948;DHT22;3513;47.664;9.162;2023-02-28T00:10:42;0.00;89.70
6948;DHT22;3513;47.664;9.162;2023-02-28T00:13:08;0.00;89.60
6948;DHT22;3513;47.664;9.162;2023-02-28T00:15:34;0.00;89.20
6948;DHT22;3513;47.664;9.162;2023-02-28T00:17:59;0.00;89.70
6948;DHT22;3513;47.664;9.162;2023-02-28T00:20:25;0.00;90.10
6948;DHT22;3513;47.664;9.162;2023-02-28T00:22:52;0.10;89.40
6948;DHT22;3513;47.664;9.162;2023-02-28T00:25:21;0.00;88.80
6948;DHT22;3513;47.664;9.162;2023-02-28T00:27:47;0.00;88.90
6948;DHT22;3513;47.664;9.162;2023-02-28T00:30:16;0.00;89.80
6948;DHT22;3513;47.664;9.162;2023-02-28T00:32:42;0.00;90.00
6948;DHT22;3513;47.664;9.162;2023-02-28T00:35:08;0.00;90.00
6948;DHT22;3513;47.664;9.162;2023-02-28T00:37:34;0.00;89.60
6948;DHT22;3513;47.664;9.162;2023-02-28T00:40:00;0.00;90.00
6948;DHT22;3513;47.664;9.162;2023-02-28T00:42:26;0.00;90.00
6948;DHT22;3513;47.664;9.162;2023-02-28T00:44:52;0.00;90.10
6948;DHT22;3513;47.664;9.162;2023-02-28T00:47:18;0.00;90.10
6948;DHT22;3513;47.664;9.162;2023-02-28T00:49:43;0.00;90.20
6948;DHT22;3513;47.664;9.162;2023-02-28T00:52:09;0.00;89.90
6948;DHT22;3513;47.664;9.162;2023-02-28T00:54:35;0.00;89.60
6948;DHT22;3513;47.664;9.162;2023-02-28T00:57:01;0.00;90.00
6948;DHT22;3513;47.664;9.162;2023-02-28T00:59:26;0.00;90.00
6948;DHT22;3513;47.664;9.162;2023-02-28T01:01:52;0.00;90.00
6948;DHT22;3513;47.664;9.162;2023-02-28T01:04:17;0.00;89.90
6948;DHT22;3513;47.664;9.162;2023-02-28T01:06:43;0.00;90.10
6948;DHT22;3513;47.664;9.162;2023-02-28T01:09:09;0.00;90.30
6948;DHT22;3513;47.664;9.162;2023-02-28T01:11:35;0.00;90.60
6948;DHT22;3513;47.664;9.162;2023-02-28T01:14:01;0.00;90.60
6948;DHT22;3513;47.664;9.162;2023-02-28T01:16:27;0.00;90.60
6948;DHT22;3513;47.664;9.162;2023-02-28T01:18:53;0.10;90.80
6948;DHT22;3513;47.664;9.162;2023-02-28T01:21:21;0.10;90.50
6948;DHT22;3513;47.664;9.162;2023-02-28T01:23:47;0.10;90.30
6948;DHT22;3513;47.664;9.162;2023-02-28T01:26:19;0.10;90.30
6948;DHT22;3513;47.664;9.162;2023-02-28T01:28:45;0.10;90.10
6948;DHT22;3513;47.664;9.162;2023-02-28T01:31:11;0.10;90.20
6948;DHT22;3513;47.664;9.162;2023-02-28T01:33:37;0.10;90.00
6948;DHT22;3513;47.664;9.162;2023-02-28T01:36:12;0.10;89.90
6948;DHT22;3513;47.664;9.162;2023-02-28T01:38:38;0.10;90.10
6948;DHT22;3513;47.664;9.162;2023-02-28T01:41:04;0.10;90.10
6948;DHT22;3513;47.664;9.162;2023-02-28T01:43:54;0.10;90.10
6948;DHT22;3513;47.664;9.162;2023-02-28T01:46:18;0.10;90.00
6948;DHT22;3513;47.664;9.162;2023-02-28T01:49:10;0.00;89.20
6948;DHT22;3513;47.664;9.162;2023-02-28T01:51:41;0.10;90.10
6948;DHT22;3513;47.664;9.162;2023-02-28T01:54:14;0.10;90.40
6948;DHT22;3513;47.664;9.162;2023-02-28T01:56:45;0.10;90.20
6948;DHT22;3513;47.664;9.162;2023-02-28T01:59:16;0.00;89.60
6948;DHT22;3513;47.664;9.162;2023-02-28T02:01:46;0.00;89.70
6948;DHT22;3513;47.664;9.162;2023-02-28T02:04:11;0.00;89.80
6948;DHT22;3513;47.664;9.162;2023-02-28T02:06:40;0.00;90.10
6948;DHT22;3513;47.664;9.162;2023-02-28T02:09:07;0.00;90.30
6948;DHT22;3513;47.664;9.162;2023-02-28T02:11:34;0.00;90.40
6948;DHT22;3513;47.664;9.162;2023-02-28T02:14:24;0.00;90.40
6948;DHT22;3513;47.664;9.162;2023-02-28T02:20:06;0.10;90.30
6948;DHT22;3513;47.664;9.162;2023-02-28T02:23:07;0.00;90.00
6948;DHT22;3513;47.664;9.162;2023-02-28T02:36:39;0.00;90.00
6948;DHT22;3513;47.664;9.162;2023-02-28T02:39:31;0.00;90.00
6948;DHT22;3513;47.664;9.162;2023-02-28T02:42:01;0.00;90.30
6948;DHT22;3513;47.664;9.162;2023-02-28T02:44:46;0.00;90.30
6948;DHT22;3513;47.664;9.162;2023-02-28T02:47:17;0.00;90.30
6948;DHT22;3513;47.664;9.162;2023-02-28T02:49:48;0.00;90.30
6948;DHT22;3513;47.664;9.162;2023-02-28T02:52:17;0.00;90.30
6948;DHT22;3513;47.664;9.162;2023-02-28T02:54:45;0.00;90.60
6948;DHT22;3513;47.664;9.162;2023-02-28T02:57:23;0.10;90.50
6948;DHT22;3513;47.664;9.162;2023-02-28T02:59:52;0.00;90.20
6948;DHT22;3513;47.664;9.162;2023-02-28T03:02:21;0.00;90.40
6948;DHT22;3513;47.664;9.162;2023-02-28T03:04:58;0.00;90.20
6948;DHT22;3513;47.664;9.162;2023-02-28T03:07:28;0.00;90.40
6948;DHT22;3513;47.664;9.162;2023-02-28T03:09:55;0.00;90.40
6948;DHT22;3513;47.664;9.162;2023-02-28T03:12:26;0.00;90.30
6948;DHT22;3513;47.664;9.162;2023-02-28T03:15:02;0.00;89.80
6948;DHT22;3513;47.664;9.162;2023-02-28T03:23:10;-0.10;89.90
6948;DHT22;3513;47.664;9.162;2023-02-28T03:25:48;-0.10;90.00
6948;DHT22;3513;47.664;9.162;2023-02-28T03:28:32;0.00;90.30
6948;DHT22;3513;47.664;9.162;2023-02-28T03:31:22;-0.10;90.10
6948;DHT22;3513;47.664;9.162;2023-02-28T03:36:30;0.00;90.00
6948;DHT22;3513;47.664;9.162;2023-02-28T03:39:08;0.00;89.70
6948;DHT22;3513;47.664;9.162;2023-02-28T03:41:36;0.00;90.10
6948;DHT22;3513;47.664;9.162;2023-02-28T03:44:13;-0.40;88.80
6948;DHT22;3513;47.664;9.162;2023-02-28T03:46:48;-0.10;89.40
6948;DHT22;3513;47.664;9.162;2023-02-28T03:49:21;0.00;89.70
6948;DHT22;3513;47.664;9.162;2023-02-28T03:51:49;0.00;89.70
6948;DHT22;3513;47.664;9.162;2023-02-28T03:54:19;0.00;89.20
6948;DHT22;3513;47.664;9.162;2023-02-28T03:59:47;0.00;89.20
6948;DHT22;3513;47.664;9.162;2023-02-28T04:02:13;0.00;89.70
6948;DHT22;3513;47.664;9.162;2023-02-28T04:04:39;0.00;89.40
6948;DHT22;3513;47.664;9.162;2023-02-28T04:07:11;0.00;89.40
6948;DHT22;3513;47.664;9.162;2023-02-28T04:09:37;0.00;89.90
6948;DHT22;3513;47.664;9.162;2023-02-28T04:12:03;0.00;88.60
6948;DHT22;3513;47.664;9.162;2023-02-28T04:14:29;-0.10;89.00
6948;DHT22;3513;47.664;9.162;2023-02-28T04:16:55;0.00;89.90
6948;DHT22;3513;47.664;9.162;2023-02-28T04:19:20;0.00;89.70
6948;DHT22;3513;47.664;9.162;2023-02-28T04:21:48;0.10;88.80
6948;DHT22;3513;47.664;9.162;2023-02-28T04:24:16;0.10;88.70
6948;DHT22;3513;47.664;9.162;2023-02-28T04:26:48;0.00;88.50
6948;DHT22;3513;47.664;9.162;2023-02-28T04:29:38;0.00;88.60
6948;DHT22;3513;47.664;9.162;2023-02-28T04:32:04;-0.10;88.40
6948;DHT22;3513;47.664;9.162;2023-02-28T04:34:31;-0.10;87.80
6948;DHT22;3513;47.664;9.162;2023-02-28T04:36:57;-0.10;88.90
6948;DHT22;3513;47.664;9.162;2023-02-28T04:39:24;-0.10;89.20
6948;DHT22;3513;47.664;9.162;2023-02-28T04:41:50;-0.10;89.10
6948;DHT22;3513;47.664;9.162;2023-02-28T04:44:15;-0.10;89.50
6948;DHT22;3513;47.664;9.162;2023-02-28T04:46:42;-0.10;89.90
6948;DHT22;3513;47.664;9.162;2023-02-28T04:49:12;0.00;90.20
6948;DHT22;3513;47.664;9.162;2023-02-28T04:51:38;0.00;90.00
6948;DHT22;3513;47.664;9.162;2023-02-28T04:54:03;0.10;89.60
6948;DHT22;3513;47.664;9.162;2023-02-28T04:56:29;0.00;88.20
6948;DHT22;3513;47.664;9.162;2023-02-28T04:58:55;0.00;87.90
6948;DHT22;3513;47.664;9.162;2023-02-28T05:01:28;0.00;88.90
6948;DHT22;3513;47.664;9.162;2023-02-28T05:03:55;0.00;89.10
6948;DHT22;3513;47.664;9.162;2023-02-28T05:06:23;0.00;88.60
6948;DHT22;3513;47.664;9.162;2023-02-28T05:08:49;-0.10;89.00
6948;DHT22;3513;47.664;9.162;2023-02-28T05:11:30;0.00;89.30
6948;DHT22;3513;47.664;9.162;2023-02-28T05:14:00;0.00;88.80
6948;DHT22;3513;47.664;9.162;2023-02-28T05:16:26;0.10;89.20
6948;DHT22;3513;47.664;9.162;2023-02-28T05:18:52;0.00;89.90
6948;DHT22;3513;47.664;9.162;2023-02-28T05:21:31;0.00;89.70
6948;DHT22;3513;47.664;9.162;2023-02-28T05:24:00;0.00;88.80
6948;DHT22;3513;47.664;9.162;2023-02-28T05:26:27;0.00;88.60
6948;DHT22;3513;47.664;9.162;2023-02-28T05:28:53;0.10;88.60
6948;DHT22;3513;47.664;9.162;2023-02-28T05:31:19;0.00;88.00
6948;DHT22;3513;47.664;9.162;2023-02-28T05:33:44;-0.10;87.10
6948;DHT22;3513;47.664;9.162;2023-02-28T05:36:10;-0.10;87.50
6948;DHT22;3513;47.664;9.162;2023-02-28T05:38:36;-0.10;88.30
6948;DHT22;3513;47.664;9.162;2023-02-28T05:41:05;-0.10;87.70
6948;DHT22;3513;47.664;9.162;2023-02-28T05:43:31;-0.10;87.80
6948;DHT22;3513;47.664;9.162;2023-02-28T05:45:57;-0.10;87.80
6948;DHT22;3513;47.664;9.162;2023-02-28T05:48:22;-0.10;88.00
6948;DHT22;3513;47.664;9.162;2023-02-28T05:50:48;-0.20;87.00
6948;DHT22;3513;47.664;9.162;2023-02-28T05:53:13;-0.10;87.50
6948;DHT22;3513;47.664;9.162;2023-02-28T05:55:39;-0.20;87.60
6948;DHT22;3513;47.664;9.162;2023-02-28T05:58:06;-0.10;88.20
6948;DHT22;3513;47.664;9.162;2023-02-28T06:00:31;-0.10;88.10
6948;DHT22;3513;47.664;9.162;2023-02-28T06:02:57;-0.10;87.80
6948;DHT22;3513;47.664;9.162;2023-02-28T06:05:27;0.00;88.10
6948;DHT22;3513;47.664;9.162;2023-02-28T06:07:53;0.00;87.70
6948;DHT22;3513;47.664;9.162;2023-02-28T06:10:18;0.00;87.30
6948;DHT22;3513;47.664;9.162;2023-02-28T06:12:45;0.00;87.20
6948;DHT22;3513;47.664;9.162;2023-02-28T06:15:15;0.00;87.20
6948;DHT22;3513;47.664;9.162;2023-02-28T06:17:43;0.00;87.30
6948;DHT22;3513;47.664;9.162;2023-02-28T06:20:10;0.00;87.20
6948;DHT22;3513;47.664;9.162;2023-02-28T06:22:36;-0.10;87.30
6948;DHT22;3513;47.664;9.162;2023-02-28T06:25:03;-0.10;87.40
6948;DHT22;3513;47.664;9.162;2023-02-28T06:27:30;-0.10;87.60
6948;DHT22;3513;47.664;9.162;2023-02-28T06:29:56;-0.10;87.50
6948;DHT22;3513;47.664;9.162;2023-02-28T06:32:22;-0.10;87.80
6948;DHT22;3513;47.664;9.162;2023-02-28T06:34:48;-0.10;87.90
6948;DHT22;3513;47.664;9.162;2023-02-28T06:37:14;-0.10;87.60
6948;DHT22;3513;47.664;9.162;2023-02-28T06:39:39;-0.10;87.90
6948;DHT22;3513;47.664;9.162;2023-02-28T06:42:05;-0.10;88.00
6948;DHT22;3513;47.664;9.162;2023-02-28T06:44:31;-0.10;87.90
6948;DHT22;3513;47.664;9.162;2023-02-28T06:47:01;-0.10;87.70
6948;DHT22;3513;47.664;9.162;2023-02-28T06:49:29;-0.10;87.40
6948;DHT22;3513;47.664;9.162;2023-02-28T06:51:55;-0.10;87.40
6948;DHT22;3513;47.664;9.162;2023-02-28T06:54:21;-0.10;87.70
6948;DHT22;3513;47.664;9.162;2023-02-28T06:56:46;-0.10;87.80
6948;DHT22;3513;47.664;9.162;2023-02-28T06:59:12;0.00;87.70
6948;DHT22;3513;47.664;9.162;2023-02-28T07:01:39;0.00;87.90
6948;DHT22;3513;47.664;9.162;2023-02-28T07:04:05;0.00;87.90
6948;DHT22;3513;47.664;9.162;2023-02-28T07:06:31;0.10;87.60
6948;DHT22;3513;47.664;9.162;2023-02-28T07:08:57;0.10;87.60
6948;DHT22;3513;47.664;9.162;2023-02-28T07:11:24;0.10;87.50
6948;DHT22;3513;47.664;9.162;2023-02-28T07:13:54;0.10;88.10
6948;DHT22;3513;47.664;9.162;2023-02-28T07:16:20;0.20;88.10
6948;DHT22;3513;47.664;9.162;2023-02-28T07:18:46;0.30;88.00
6948;DHT22;3513;47.664;9.162;2023-02-28T07:21:12;0.30;87.10
6948;DHT22;3513;47.664;9.162;2023-02-28T07:23:39;0.30;87.00
6948;DHT22;3513;47.664;9.162;2023-02-28T07:26:07;0.30;87.00
6948;DHT22;3513;47.664;9.162;2023-02-28T07:28:33;0.30;86.70
6948;DHT22;3513;47.664;9.162;2023-02-28T07:31:05;0.40;88.70
6948;DHT22;3513;47.664;9.162;2023-02-28T07:33:31;0.30;89.00
6948;DHT22;3513;47.664;9.162;2023-02-28T07:36:04;0.40;89.60
6948;DHT22;3513;47.664;9.162;2023-02-28T07:38:33;0.40;90.00
6948;DHT22;3513;47.664;9.162;2023-02-28T07:40:59;0.40;89.00
6948;DHT22;3513;47.664;9.162;2023-02-28T07:43:24;0.40;87.60
6948;DHT22;3513;47.664;9.162;2023-02-28T07:45:50;0.30;87.10
6948;DHT22;3513;47.664;9.162;2023-02-28T07:48:15;0.30;87.40
6948;DHT22;3513;47.664;9.162;2023-02-28T07:50:41;2.00;88.80
6948;DHT22;3513;47.664;9.162;2023-02-28T07:53:07;0.40;88.00
6948;DHT22;3513;47.664;9.162;2023-02-28T07:55:32;0.30;86.40
6948;DHT22;3513;47.664;9.162;2023-02-28T07:57:58;0.30;87.60
6948;DHT22;3513;47.664;9.162;2023-02-28T08:00:24;0.40;88.30
6948;DHT22;3513;47.664;9.162;2023-02-28T08:02:50;0.40;88.00
6948;DHT22;3513;47.664;9.162;2023-02-28T08:05:16;0.40;87.60
6948;DHT22;3513;47.664;9.162;2023-02-28T08:07:41;0.30;85.60
6948;DHT22;3513;47.664;9.162;2023-02-28T08:10:07;0.20;85.90
6948;DHT22;3513;47.664;9.162;2023-02-28T08:12:35;0.20;87.20
6948;DHT22;3513;47.664;9.162;2023-02-28T08:15:01;0.20;87.90
6948;DHT22;3513;47.664;9.162;2023-02-28T08:17:27;0.30;87.90
6948;DHT22;3513;47.664;9.162;2023-02-28T08:19:52;0.30;88.10
6948;DHT22;3513;47.664;9.162;2023-02-28T08:22:18;0.40;88.00
6948;DHT22;3513;47.664;9.162;2023-02-28T08:24:43;0.40;87.90
6948;DHT22;3513;47.664;9.162;2023-02-28T08:27:09;0.40;87.50
6948;DHT22;3513;47.664;9.162;2023-02-28T08:29:38;0.40;85.90
6948;DHT22;3513;47.664;9.162;2023-02-28T08:32:06;0.40;86.60
6948;DHT22;3513;47.664;9.162;2023-02-28T08:34:31;0.50;87.10
6948;DHT22;3513;47.664;9.162;2023-02-28T08:36:57;0.50;87.10
6948;DHT22;3513;47.664;9.162;2023-02-28T08:39:23;0.50;85.80
6948;DHT22;3513;47.664;9.162;2023-02-28T08:41:48;0.50;85.80
6948;DHT22;3513;47.664;9.162;2023-02-28T08:44:14;0.50;86.50
6948;DHT22;3513;47.664;9.162;2023-02-28T08:46:40;0.50;86.90
6948;DHT22;3513;47.664;9.162;2023-02-28T08:49:05;0.60;86.60
6948;DHT22;3513;47.664;9.162;2023-02-28T08:51:32;0.60;86.00
6948;DHT22;3513;47.664;9.162;2023-02-28T08:53:59;0.60;86.10
6948;DHT22;3513;47.664;9.162;2023-02-28T08:56:26;0.70;86.30
6948;DHT22;3513;47.664;9.162;2023-02-28T08:58:55;0.80;86.00
6948;DHT22;3513;47.664;9.162;2023-02-28T09:01:23;0.80;85.40
6948;DHT22;3513;47.664;9.162;2023-02-28T09:03:50;0.80;84.90
6948;DHT22;3513;47.664;9.162;2023-02-28T09:06:17;0.80;85.20
6948;DHT22;3513;47.664;9.162;2023-02-28T09:08:44;0.80;85.40
6948;DHT22;3513;47.664;9.162;2023-02-28T09:11:12;0.80;85.20
6948;DHT22;3513;47.664;9.162;2023-02-28T09:13:38;0.70;83.30
6948;DHT22;3513;47.664;9.162;2023-02-28T09:16:06;0.70;84.30
6948;DHT22;3513;47.664;9.162;2023-02-28T09:18:34;0.70;85.10
6948;DHT22;3513;47.664;9.162;2023-02-28T09:21:06;0.80;85.50
6948;DHT22;3513;47.664;9.162;2023-02-28T09:23:32;0.80;86.00
6948;DHT22;3513;47.664;9.162;2023-02-28T09:25:58;0.90;85.90
6948;DHT22;3513;47.664;9.162;2023-02-28T09:28:24;0.90;84.30
6948;DHT22;3513;47.664;9.162;2023-02-28T09:30:52;1.00;84.90
6948;DHT22;3513;47.664;9.162;2023-02-28T09:33:18;1.00;85.10
6948;DHT22;3513;47.664;9.162;2023-02-28T09:35:47;1.10;85.00
6948;DHT22;3513;47.664;9.162;2023-02-28T09:38:12;1.20;84.00
6948;DHT22;3513;47.664;9.162;2023-02-28T09:40:53;1.10;82.60
6948;DHT22;3513;47.664;9.162;2023-02-28T09:43:22;1.00;82.30
6948;DHT22;3513;47.664;9.162;2023-02-28T09:46:00;1.00;83.10
6948;DHT22;3513;47.664;9.162;2023-02-28T09:48:41;1.10;84.20
6948;DHT22;3513;47.664;9.162;2023-02-28T09:51:20;1.20;83.90
6948;DHT22;3513;47.664;9.162;2023-02-28T09:53:48;1.20;84.30
6948;DHT22;3513;47.664;9.162;2023-02-28T09:56:36;1.30;84.20
6948;DHT22;3513;47.664;9.162;2023-02-28T10:05:07;1.40;83.40
6948;DHT22;3513;47.664;9.162;2023-02-28T10:07:40;1.50;83.30
6948;DHT22;3513;47.664;9.162;2023-02-28T10:10:22;1.60;83.50
6948;DHT22;3513;47.664;9.162;2023-02-28T10:12:53;1.60;82.30
6948;DHT22;3513;47.664;9.162;2023-02-28T10:15:21;1.50;81.50
6948;DHT22;3513;47.664;9.162;2023-02-28T10:17:49;1.50;82.10
6948;DHT22;3513;47.664;9.162;2023-02-28T10:20:22;1.60;82.90
6948;DHT22;3513;47.664;9.162;2023-02-28T10:23:19;1.60;82.10
6948;DHT22;3513;47.664;9.162;2023-02-28T10:25:50;1.70;81.50
6948;DHT22;3513;47.664;9.162;2023-02-28T10:28:18;1.70;80.30
6948;DHT22;3513;47.664;9.162;2023-02-28T10:30:49;1.90;80.70
6948;DHT22;3513;47.664;9.162;2023-02-28T10:33:43;1.80;80.20
6948;DHT22;3513;47.664;9.162;2023-02-28T10:36:17;1.70;79.70
6948;DHT22;3513;47.664;9.162;2023-02-28T10:38:44;1.70;79.90
6948;DHT22;3513;47.664;9.162;2023-02-28T10:41:16;1.70;80.30
6948;DHT22;3513;47.664;9.162;2023-02-28T10:43:43;1.70;80.40
6948;DHT22;3513;47.664;9.162;2023-02-28T10:49:00;2.00;81.00
6948;DHT22;3513;47.664;9.162;2023-02-28T10:51:37;2.10;80.40
6948;DHT22;3513;47.664;9.162;2023-02-28T10:54:04;2.30;79.70
6948;DHT22;3513;47.664;9.162;2023-02-28T10:56:30;2.40;79.40
6948;DHT22;3513;47.664;9.162;2023-02-28T11:01:48;2.50;78.40
6948;DHT22;3513;47.664;9.162;2023-02-28T11:06:45;2.40;76.50
6948;DHT22;3513;47.664;9.162;2023-02-28T11:09:32;2.40;77.20
6948;DHT22;3513;47.664;9.162;2023-02-28T11:11:59;2.40;77.70
6948;DHT22;3513;47.664;9.162;2023-02-28T11:14:31;2.40;77.80
6948;DHT22;3513;47.664;9.162;2023-02-28T11:17:14;2.40;78.00
6948;DHT22;3513;47.664;9.162;2023-02-28T11:19:47;2.40;77.60
6948;DHT22;3513;47.664;9.162;2023-02-28T11:22:23;2.50;77.70
6948;DHT22;3513;47.664;9.162;2023-02-28T11:24:52;2.50;77.50
6948;DHT22;3513;47.664;9.162;2023-02-28T11:29:58;2.60;77.20
6948;DHT22;3513;47.664;9.162;2023-02-28T11:32:28;2.60;77.40
6948;DHT22;3513;47.664;9.162;2023-02-28T11:35:10;2.60;77.40
6948;DHT22;3513;47.664;9.162;2023-02-28T11:37:38;2.60;77.00
6948;DHT22;3513;47.664;9.162;2023-02-28T11:40:12;2.70;76.90
6948;DHT22;3513;47.664;9.162;2023-02-28T11:53:48;2.20;77.00
6948;DHT22;3513;47.664;9.162;2023-02-28T11:59:48;2.00;78.70
6948;DHT22;3513;47.664;9.162;2023-02-28T12:02:45;2.10;79.10
6948;DHT22;3513;47.664;9.162;2023-02-28T12:05:23;2.20;79.10
6948;DHT22;3513;47.664;9.162;2023-02-28T12:08:10;2.10;78.20
6948;DHT22;3513;47.664;9.162;2023-02-28T12:13:46;2.10;79.10
6948;DHT22;3513;47.664;9.162;2023-02-28T12:26:52;2.30;78.80
6948;DHT22;3513;47.664;9.162;2023-02-28T12:29:26;2.40;79.00
6948;DHT22;3513;47.664;9.162;2023-02-28T12:32:21;2.50;78.30
6948;DHT22;3513;47.664;9.162;2023-02-28T12:35:03;2.60;78.60
6948;DHT22;3513;47.664;9.162;2023-02-28T12:37:37;2.60;78.20
6948;DHT22;3513;47.664;9.162;2023-02-28T12:40:11;2.70;78.00
6948;DHT22;3513;47.664;9.162;2023-02-28T12:42:41;2.70;78.00
6948;DHT22;3513;47.664;9.162;2023-02-28T12:45:19;2.80;78.30
6948;DHT22;3513;47.664;9.162;2023-02-28T12:47:50;2.90;78.40
6948;DHT22;3513;47.664;9.162;2023-02-28T12:50:18;3.00;78.00
6948;DHT22;3513;47.664;9.162;2023-02-28T12:58:47;3.20;76.80
6948;DHT22;3513;47.664;9.162;2023-02-28T13:04:21;3.10;76.20
6948;DHT22;3513;47.664;9.162;2023-02-28T13:07:29;3.10;76.30
6948;DHT22;3513;47.664;9.162;2023-02-28T13:10:00;3.00;76.20
6948;DHT22;3513;47.664;9.162;2023-02-28T13:12:27;3.00;76.30
6948;DHT22;3513;47.664;9.162;2023-02-28T13:15:16;2.90;75.60
6948;DHT22;3513;47.664;9.162;2023-02-28T13:17:48;2.90;76.90
6948;DHT22;3513;47.664;9.162;2023-02-28T13:20:20;3.00;77.40
6948;DHT22;3513;47.664;9.162;2023-02-28T13:22:48;3.00;77.40
6948;DHT22;3513;47.664;9.162;2023-02-28T13:27:59;3.00;76.70
6948;DHT22;3513;47.664;9.162;2023-02-28T13:38:38;2.50;78.00
6948;DHT22;3513;47.664;9.162;2023-02-28T13:46:36;2.60;78.30
6948;DHT22;3513;47.664;9.162;2023-02-28T14:03:18;2.70;77.10
6948;DHT22;3513;47.664;9.162;2023-02-28T14:06:08;2.60;77.40
6948;DHT22;3513;47.664;9.162;2023-02-28T14:08:35;2.50;77.80
6948;DHT22;3513;47.664;9.162;2023-02-28T14:11:08;2.40;77.80
6948;DHT22;3513;47.664;9.162;2023-02-28T14:13:45;2.50;79.20
6948;DHT22;3513;47.664;9.162;2023-02-28T14:16:19;2.50;78.40
6948;DHT22;3513;47.664;9.162;2023-02-28T14:18:58;2.60;79.10
6948;DHT22;3513;47.664;9.162;2023-02-28T14:21:32;2.60;79.60
6948;DHT22;3513;47.664;9.162;2023-02-28T14:35:21;2.60;79.90
6948;DHT22;3513;47.664;9.162;2023-02-28T14:37:53;2.50;79.80
6948;DHT22;3513;47.664;9.162;2023-02-28T14:40:33;2.50;79.70
6948;DHT22;3513;47.664;9.162;2023-02-28T14:43:02;2.30;79.70
6948;DHT22;3513;47.664;9.162;2023-02-28T14:45:35;2.30;80.50
6948;DHT22;3513;47.664;9.162;2023-02-28T14:48:04;2.40;81.40
6948;DHT22;3513;47.664;9.162;2023-02-28T14:50:36;2.40;81.60
6948;DHT22;3513;47.664;9.162;2023-02-28T14:53:02;2.40;81.50
6948;DHT22;3513;47.664;9.162;2023-02-28T14:55:30;2.40;80.60
6948;DHT22;3513;47.664;9.162;2023-02-28T14:57:58;2.40;80.40
6948;DHT22;3513;47.664;9.162;2023-02-28T15:00:27;2.40;81.10
6948;DHT22;3513;47.664;9.162;2023-02-28T15:02:54;2.30;80.60
6948;DHT22;3513;47.664;9.162;2023-02-28T15:05:29;2.20;81.10
6948;DHT22;3513;47.664;9.162;2023-02-28T15:08:15;2.10;81.00
6948;DHT22;3513;47.664;9.162;2023-02-28T15:10:56;2.10;82.00
6948;DHT22;3513;47.664;9.162;2023-02-28T15:13:25;2.20;82.70
6948;DHT22;3513;47.664;9.162;2023-02-28T15:16:02;2.30;82.10
6948;DHT22;3513;47.664;9.162;2023-02-28T15:21:34;2.40;82.40
6948;DHT22;3513;47.664;9.162;2023-02-28T15:24:26;2.40;81.10
6948;DHT22;3513;47.664;9.162;2023-02-28T15:27:00;2.40;81.40
6948;DHT22;3513;47.664;9.162;2023-02-28T15:29:29;2.40;80.80
6948;DHT22;3513;47.664;9.162;2023-02-28T15:32:03;2.40;81.50
6948;DHT22;3513;47.664;9.162;2023-02-28T15:34:44;2.50;81.60
6948;DHT22;3513;47.664;9.162;2023-02-28T15:39:57;3.00;80.40
6948;DHT22;3513;47.664;9.162;2023-02-28T15:42:28;3.50;80.30
6948;DHT22;3513;47.664;9.162;2023-02-28T15:44:54;4.30;77.90
6948;DHT22;3513;47.664;9.162;2023-02-28T15:47:22;5.10;74.90
6948;DHT22;3513;47.664;9.162;2023-02-28T15:49:58;5.70;71.10
6948;DHT22;3513;47.664;9.162;2023-02-28T15:52:42;6.30;68.40
6948;DHT22;3513;47.664;9.162;2023-02-28T15:55:18;6.70;67.10
6948;DHT22;3513;47.664;9.162;2023-02-28T15:57:46;7.00;64.30
6948;DHT22;3513;47.664;9.162;2023-02-28T16:00:15;7.30;63.80
6948;DHT22;3513;47.664;9.162;2023-02-28T16:02:41;7.60;62.40
6948;DHT22;3513;47.664;9.162;2023-02-28T16:07:34;7.70;60.60
6948;DHT22;3513;47.664;9.162;2023-02-28T16:10:00;7.60;60.30
6948;DHT22;3513;47.664;9.162;2023-02-28T16:12:28;7.50;60.10
6948;DHT22;3513;47.664;9.162;2023-02-28T16:14:57;7.50;60.10
6948;DHT22;3513;47.664;9.162;2023-02-28T16:17:29;7.30;60.00
6948;DHT22;3513;47.664;9.162;2023-02-28T16:19:55;7.00;60.00
6948;DHT22;3513;47.664;9.162;2023-02-28T16:22:21;7.00;61.30
6948;DHT22;3513;47.664;9.162;2023-02-28T16:24:47;6.60;61.60
6948;DHT22;3513;47.664;9.162;2023-02-28T16:27:30;6.40;61.30
6948;DHT22;3513;47.664;9.162;2023-02-28T16:29:56;6.20;62.30
6948;DHT22;3513;47.664;9.162;2023-02-28T16:32:22;5.90;63.10
6948;DHT22;3513;47.664;9.162;2023-02-28T16:34:48;5.70;64.10
6948;DHT22;3513;47.664;9.162;2023-02-28T16:37:15;5.50;65.40
6948;DHT22;3513;47.664;9.162;2023-02-28T16:39:43;5.30;65.70
6948;DHT22;3513;47.664;9.162;2023-02-28T16:42:25;5.00;65.80
6948;DHT22;3513;47.664;9.162;2023-02-28T16:44:52;4.70;67.30
6948;DHT22;3513;47.664;9.162;2023-02-28T16:47:18;4.50;68.20
6948;DHT22;3513;47.664;9.162;2023-02-28T16:49:44;4.30;69.00
6948;DHT22;3513;47.664;9.162;2023-02-28T16:52:10;4.00;70.30
6948;DHT22;3513;47.664;9.162;2023-02-28T16:54:37;3.70;71.00
6948;DHT22;3513;47.664;9.162;2023-02-28T16:57:03;3.40;71.80
6948;DHT22;3513;47.664;9.162;2023-02-28T16:59:30;3.10;73.00
6948;DHT22;3513;47.664;9.162;2023-02-28T17:01:56;3.80;74.90
6948;DHT22;3513;47.664;9.162;2023-02-28T17:04:25;2.70;75.50
6948;DHT22;3513;47.664;9.162;2023-02-28T17:06:51;2.60;77.10
6948;DHT22;3513;47.664;9.162;2023-02-28T17:09:22;2.40;77.30
6948;DHT22;3513;47.664;9.162;2023-02-28T17:11:48;2.30;78.60
6948;DHT22;3513;47.664;9.162;2023-02-28T17:14:14;2.20;79.70
6948;DHT22;3513;47.664;9.162;2023-02-28T17:16:41;2.10;80.70
6948;DHT22;3513;47.664;9.162;2023-02-28T17:19:13;2.00;81.40
6948;DHT22;3513;47.664;9.162;2023-02-28T17:21:39;1.90;82.00
6948;DHT22;3513;47.664;9.162;2023-02-28T17:24:07;1.80;82.70
6948;DHT22;3513;47.664;9.162;2023-02-28T17:26:33;1.70;83.40
6948;DHT22;3513;47.664;9.162;2023-02-28T17:28:59;1.70;84.40
6948;DHT22;3513;47.664;9.162;2023-02-28T17:31:26;1.70;84.10
6948;DHT22;3513;47.664;9.162;2023-02-28T17:33:52;1.60;84.30
6948;DHT22;3513;47.664;9.162;2023-02-28T17:36:24;1.50;84.90
6948;DHT22;3513;47.664;9.162;2023-02-28T17:38:52;1.40;85.20
6948;DHT22;3513;47.664;9.162;2023-02-28T17:41:18;1.30;85.60
6948;DHT22;3513;47.664;9.162;2023-02-28T17:43:44;1.30;86.60
6948;DHT22;3513;47.664;9.162;2023-02-28T17:46:21;1.20;87.00
6948;DHT22;3513;47.664;9.162;2023-02-28T17:48:47;1.20;87.70
6948;DHT22;3513;47.664;9.162;2023-02-28T17:51:14;1.20;88.10
6948;DHT22;3513;47.664;9.162;2023-02-28T17:53:40;1.10;87.70
6948;DHT22;3513;47.664;9.162;2023-02-28T17:56:12;1.10;88.40
6948;DHT22;3513;47.664;9.162;2023-02-28T17:58:39;1.10;89.30
6948;DHT22;3513;47.664;9.162;2023-02-28T18:01:05;1.10;88.80
6948;DHT22;3513;47.664;9.162;2023-02-28T18:03:30;1.10;89.50
6948;DHT22;3513;47.664;9.162;2023-02-28T18:05:57;1.00;89.00
6948;DHT22;3513;47.664;9.162;2023-02-28T18:08:23;1.00;89.80
6948;DHT22;3513;47.664;9.162;2023-02-28T18:10:49;0.90;89.90
6948;DHT22;3513;47.664;9.162;2023-02-28T18:13:15;0.80;90.00
6948;DHT22;3513;47.664;9.162;2023-02-28T18:15:40;0.80;90.00
6948;DHT22;3513;47.664;9.162;2023-02-28T18:18:06;0.70;90.10
6948;DHT22;3513;47.664;9.162;2023-02-28T18:20:33;0.80;90.30
6948;DHT22;3513;47.664;9.162;2023-02-28T18:22:58;0.80;90.30
6948;DHT22;3513;47.664;9.162;2023-02-28T18:25:24;0.70;90.30
6948;DHT22;3513;47.664;9.162;2023-02-28T18:27:50;0.70;90.60
6948;DHT22;3513;47.664;9.162;2023-02-28T18:30:31;0.70;90.30
6948;DHT22;3513;47.664;9.162;2023-02-28T18:32:59;0.70;90.40
6948;DHT22;3513;47.664;9.162;2023-02-28T18:35:25;0.70;90.40
6948;DHT22;3513;47.664;9.162;2023-02-28T18:38:16;0.70;90.50
6948;DHT22;3513;47.664;9.162;2023-02-28T18:40:52;0.70;90.50
6948;DHT22;3513;47.664;9.162;2023-02-28T18:43:18;1.60;90.90